Date,TemperatureHighF,TemperatureAvgF,TemperatureLowF,DewpointHighF,DewpointAvgF,DewpointLowF,HumidityHigh,HumidityAvg,HumidityLow,PressureMaxIn,PressureMinIn,WindSpeedMaxMPH,WindSpeedAvgMPH,GustSpeedMaxMPH,PrecipitationSumIn
2013-2-1,4.1,-1.6,-9.2,-0.8,-6.0,-12.7,87,81,70,30.39,30.22,11,4,15,0.00
2013-2-2,17.2,8.4,2.2,15.4,4.6,-1.0,100,84,67,30.22,30.07,5,1,10,0.00
2013-2-3,18.4,10.7,2.9,13.0,5.7,0.0,92,80,65,30.10,30.01,10,3,16,0.00
2013-2-4,31.4,13.8,8.4,30.1,7.4,1.7,95,76,50,30.08,29.97,6,2,11,0.00
2013-2-5,26.9,17.8,5.4,23.5,14.1,0.8,93,85,76,30.17,29.79,12,4,17,0.00
2013-2-6,26.4,17.8,3.8,24.9,15.1,0.6,96,89,75,30.27,30.11,8,2,13,0.00
2013-2-7,30.6,26.9,21.8,30.0,25.5,20.0,96,95,92,30.19,30.01,12,4,16,0.00
2013-2-8,28.2,20.0,11.4,22.4,16.0,9.0,93,85,71,30.44,30.19,11,3,18,0.06
2013-2-9,26.4,19.1,5.6,24.0,16.6,3.3,93,90,86,30.44,30.12,11,4,16,0.00
2013-2-10,40.1,31.2,21.5,39.3,29.7,20.0,97,94,91,30.12,29.37,12,5,21,0.14
2013-2-11,36.3,29.7,24.5,34.2,26.2,19.0,94,87,77,30.01,29.35,20,9,34,0.00
2013-2-12,30.3,23.6,19.3,21.7,18.2,15.0,92,80,69,30.11,29.87,13,5,18,0.00
2013-2-13,40.0,29.5,19.5,28.5,24.2,17.8,94,81,61,29.88,29.68,8,3,11,0.00
2013-2-14,32.1,29.5,20.0,31.0,24.9,12.7,95,83,73,30.08,29.61,16,4,20,0.06
2013-2-15,24.8,15.7,7.4,12.8,7.4,2.0,85,70,49,30.28,30.08,16,3,19,0.00
2013-2-16,19.3,11.6,2.9,15.3,4.1,-1.0,92,73,46,30.27,30.21,14,2,14,0.00
2013-2-17,23.8,12.5,-3.2,16.5,4.2,-8.5,92,70,52,30.27,29.96,10,3,13,0.00
2013-2-18,43.1,31.7,23.2,33.5,25.6,16.5,92,78,65,29.96,29.51,13,5,24,0.01
2013-2-19,23.0,11.4,5.1,20.2,5.0,-3.0,91,76,59,30.26,29.57,19,7,27,0.00
2013-2-20,27.2,13.7,2.2,14.3,5.5,-3.4,87,70,48,30.48,30.26,9,3,15,0.00
2013-2-21,23.1,15.9,5.5,22.5,12.5,2.5,98,86,75,30.53,30.16,12,4,22,0.00
2013-2-22,30.4,24.8,20.9,29.0,23.1,19.0,95,93,87,30.16,29.84,18,4,25,0.03
2013-2-23,29.1,25.2,22.5,23.6,20.9,19.6,98,84,72,29.98,29.85,12,5,17,0.01
2013-2-24,39.5,27.4,16.0,27.5,21.1,14.1,93,78,54,30.17,29.97,6,2,14,0.01
2013-2-25,37.3,28.3,20.3,31.1,23.0,17.5,94,81,66,30.20,30.09,5,1,11,0.00
2013-2-26,35.2,28.7,22.9,27.5,24.4,21.0,100,85,68,30.11,29.75,18,7,32,0.00
2013-2-27,33.3,30.4,27.5,30.0,27.7,24.8,94,89,83,29.87,29.72,11,6,21,0.02
2013-2-28,33.1,30.2,24.1,28.0,23.9,15.9,90,77,69,30.20,29.87,12,5,18,0.02